createdAt,value
2017-07-31T00:00:04.299Z,17.09
2017-07-31T00:00:17.744Z,17.09
2017-07-31T00:00:30.680Z,17.07
2017-07-31T00:00:43.100Z,17.03
2017-07-31T00:00:56.547Z,17.06
2017-07-31T00:01:09.980Z,17.02
2017-07-31T00:01:23.495Z,17.05
2017-07-31T00:01:35.884Z,17.02
2017-07-31T00:01:48.816Z,17.02
2017-07-31T00:02:01.192Z,17.06
2017-07-31T00:02:14.707Z,17
2017-07-31T00:02:28.123Z,17.03
2017-07-31T00:02:41.630Z,17.03
2017-07-31T00:02:55.135Z,17.02
2017-07-31T00:03:08.122Z,16.97
2017-07-31T00:03:21.610Z,17
2017-07-31T00:03:35.014Z,16.99
2017-07-31T00:03:48.495Z,16.97
2017-07-31T00:04:01.362Z,16.99
2017-07-31T00:04:14.765Z,16.94
2017-07-31T00:04:28.198Z,16.99
2017-07-31T00:04:41.584Z,16.94
2017-07-31T00:04:54.588Z,16.99
2017-07-31T00:05:07.025Z,16.92
2017-07-31T00:05:20.467Z,16.95
2017-07-31T00:05:33.861Z,16.97
2017-07-31T00:05:46.294Z,16.94
2017-07-31T00:05:59.725Z,16.92
2017-07-31T00:06:12.652Z,16.91
2017-07-31T00:06:26.157Z,16.94
2017-07-31T00:06:39.579Z,16.88
2017-07-31T00:06:53.034Z,16.95
2017-07-31T00:07:09.192Z,16.87
2017-07-31T00:07:22.124Z,16.85
2017-07-31T00:07:35.626Z,16.91
2017-07-31T00:07:48.625Z,16.91
2017-07-31T00:08:01.559Z,16.92
2017-07-31T00:08:14.971Z,16.85
2017-07-31T00:08:27.906Z,16.94
2017-07-31T00:08:41.403Z,16.88
2017-07-31T00:08:54.306Z,16.91
2017-07-31T00:09:07.756Z,16.91
2017-07-31T00:09:21.240Z,16.94
2017-07-31T00:09:34.693Z,16.9
2017-07-31T00:09:47.055Z,16.94
2017-07-31T00:09:59.488Z,16.91
2017-07-31T00:10:12.949Z,16.94
2017-07-31T00:10:26.452Z,16.92
2017-07-31T00:10:39.847Z,16.91
2017-07-31T00:10:53.373Z,16.97
2017-07-31T00:11:06.318Z,16.91
2017-07-31T00:11:19.736Z,17.05
2017-07-31T00:11:33.198Z,16.99
2017-07-31T00:11:46.143Z,17
2017-07-31T00:11:59.098Z,16.97
2017-07-31T00:12:12.642Z,16.97
2017-07-31T00:12:26.091Z,17.02
2017-07-31T00:12:39.590Z,17.03
2017-07-31T00:12:52.566Z,16.95
2017-07-31T00:13:06.040Z,17.03
2017-07-31T00:13:19.464Z,17
2017-07-31T00:13:32.359Z,16.97
2017-07-31T00:13:45.835Z,17.05
2017-07-31T00:13:58.310Z,16.95
2017-07-31T00:14:11.223Z,16.94
2017-07-31T00:14:24.635Z,17.02
2017-07-31T00:14:38.136Z,16.99
2017-07-31T00:14:50.584Z,17.02
2017-07-31T00:15:02.480Z,17
2017-07-31T00:15:15.391Z,17
2017-07-31T00:15:28.909Z,16.92
2017-07-31T00:15:42.377Z,16.84
2017-07-31T00:15:55.907Z,16.94
2017-07-31T00:16:09.373Z,16.92
2017-07-31T00:16:22.878Z,16.9
2017-07-31T00:16:36.342Z,16.88
2017-07-31T00:16:49.263Z,16.91
2017-07-31T00:17:02.659Z,16.92
2017-07-31T00:17:16.245Z,16.92
2017-07-31T00:17:29.627Z,16.84
2017-07-31T00:17:43.051Z,16.81
2017-07-31T00:17:56.502Z,16.85
2017-07-31T00:18:09.937Z,16.92
2017-07-31T00:18:23.372Z,16.97
2017-07-31T00:18:36.880Z,16.92
2017-07-31T00:18:50.388Z,16.94
2017-07-31T00:19:03.360Z,16.82
2017-07-31T00:19:16.843Z,16.91
2017-07-31T00:19:30.349Z,16.8
2017-07-31T00:19:43.904Z,16.9
2017-07-31T00:19:56.343Z,16.8
2017-07-31T00:20:09.861Z,16.84
2017-07-31T00:20:22.322Z,16.82
2017-07-31T00:20:35.778Z,16.84
2017-07-31T00:20:48.749Z,16.87
2017-07-31T00:21:02.147Z,16.82
2017-07-31T00:21:15.076Z,16.81
2017-07-31T00:21:28.563Z,16.87
2017-07-31T00:21:41.535Z,16.88
2017-07-31T00:21:54.510Z,16.82
2017-07-31T00:22:07.472Z,16.84
2017-07-31T00:22:21.133Z,16.91
2017-07-31T00:22:34.623Z,16.95
2017-07-31T00:22:47.050Z,16.97
2017-07-31T00:23:00.564Z,16.91
2017-07-31T00:23:13.534Z,16.94
2017-07-31T00:23:26.467Z,16.92
2017-07-31T00:23:39.888Z,16.95
2017-07-31T00:23:53.347Z,17
2017-07-31T00:24:06.312Z,16.95
2017-07-31T00:24:19.282Z,16.92
2017-07-31T00:24:32.803Z,16.97
2017-07-31T00:24:46.249Z,16.91
2017-07-31T00:24:59.135Z,16.94
2017-07-31T00:25:12.586Z,16.88
2017-07-31T00:25:25.985Z,16.92
2017-07-31T00:25:38.880Z,16.88
2017-07-31T00:25:52.369Z,16.94
2017-07-31T00:26:05.833Z,16.9
2017-07-31T00:26:19.257Z,16.9
2017-07-31T00:26:32.200Z,16.88
2017-07-31T00:26:45.652Z,16.91
2017-07-31T00:26:59.164Z,16.85
2017-07-31T00:27:13.658Z,16.97
2017-07-31T00:27:27.089Z,16.84
2017-07-31T00:27:40.569Z,16.81
2017-07-31T00:27:54.061Z,16.91
2017-07-31T00:28:07.444Z,16.8
2017-07-31T00:28:20.375Z,16.85
2017-07-31T00:28:33.825Z,16.9
2017-07-31T00:28:46.740Z,16.87
2017-07-31T00:29:00.232Z,16.85
2017-07-31T00:29:13.694Z,16.84
2017-07-31T00:29:27.201Z,16.82
2017-07-31T00:29:40.096Z,16.84
2017-07-31T00:29:52.997Z,16.95
2017-07-31T00:30:06.432Z,16.88
2017-07-31T00:30:19.900Z,16.91
2017-07-31T00:30:33.371Z,16.94
2017-07-31T00:30:46.828Z,17.03
2017-07-31T00:30:59.771Z,16.92
2017-07-31T00:31:13.255Z,17.03
2017-07-31T00:31:26.700Z,17.07
2017-07-31T00:31:39.614Z,17.12
2017-07-31T00:31:53.077Z,17.12
2017-07-31T00:32:06.515Z,17.17
2017-07-31T00:32:20.749Z,17.15
2017-07-31T00:32:33.725Z,17.17
2017-07-31T00:32:47.239Z,17.15
2017-07-31T00:33:00.695Z,17.17
2017-07-31T00:33:13.622Z,17.27
2017-07-31T00:33:26.573Z,17.13
2017-07-31T00:33:40.036Z,17.28
2017-07-31T00:33:53.506Z,17.31
2017-07-31T00:34:06.966Z,17.31
2017-07-31T00:34:19.953Z,17.31
2017-07-31T00:34:33.453Z,17.25
2017-07-31T00:34:46.905Z,17.28
2017-07-31T00:34:59.847Z,17.27
2017-07-31T00:35:12.212Z,17.24
2017-07-31T00:35:25.705Z,17.15
2017-07-31T00:35:39.106Z,17.24
2017-07-31T00:35:52.016Z,17.28
2017-07-31T00:36:04.951Z,17.22
2017-07-31T00:36:17.913Z,17.15
2017-07-31T00:36:31.350Z,17.1
2017-07-31T00:36:44.798Z,17.06
2017-07-31T00:36:58.261Z,17.13
2017-07-31T00:37:11.708Z,17
2017-07-31T00:37:24.654Z,17.06
2017-07-31T00:37:38.119Z,16.99
2017-07-31T00:37:51.553Z,17.02
2017-07-31T00:38:05.008Z,16.95
2017-07-31T00:38:18.491Z,16.9
2017-07-31T00:38:31.918Z,16.94
2017-07-31T00:38:45.325Z,16.94
2017-07-31T00:38:58.261Z,16.94
2017-07-31T00:39:11.756Z,16.91
2017-07-31T00:39:25.166Z,16.9
2017-07-31T00:39:38.664Z,16.82
2017-07-31T00:39:52.121Z,16.82
2017-07-31T00:40:05.617Z,16.85
2017-07-31T00:40:19.033Z,16.84
2017-07-31T00:40:32.460Z,16.84
2017-07-31T00:40:45.939Z,16.84
2017-07-31T00:40:59.430Z,16.88
2017-07-31T00:41:11.772Z,16.82
2017-07-31T00:41:24.685Z,16.77
2017-07-31T00:41:38.128Z,16.84
2017-07-31T00:41:51.044Z,16.81
2017-07-31T00:42:04.505Z,16.82
2017-07-31T00:42:17.890Z,16.88
2017-07-31T00:42:30.810Z,16.87
2017-07-31T00:42:43.709Z,16.85
2017-07-31T00:42:57.094Z,16.87
2017-07-31T00:43:10.595Z,16.85
2017-07-31T00:43:24.094Z,16.84
2017-07-31T00:43:37.520Z,16.84
2017-07-31T00:43:50.951Z,16.88
2017-07-31T00:44:04.353Z,16.84
2017-07-31T00:44:17.798Z,16.85
2017-07-31T00:44:29.651Z,16.88
2017-07-31T00:44:43.089Z,16.74
2017-07-31T00:44:56.575Z,16.77
2017-07-31T00:45:09.987Z,16.8
2017-07-31T00:45:23.464Z,16.82
2017-07-31T00:45:36.942Z,16.77
2017-07-31T00:45:50.403Z,16.76
2017-07-31T00:46:03.873Z,16.69
2017-07-31T00:46:16.751Z,16.67
2017-07-31T00:46:30.132Z,16.81
2017-07-31T00:46:43.009Z,16.7
2017-07-31T00:46:56.436Z,16.7
2017-07-31T00:47:09.928Z,16.72
2017-07-31T00:47:22.970Z,16.74
2017-07-31T00:47:36.468Z,16.69
2017-07-31T00:47:49.405Z,16.65
2017-07-31T00:48:02.379Z,16.67
2017-07-31T00:48:15.838Z,16.65
2017-07-31T00:48:29.259Z,16.65
2017-07-31T00:48:42.666Z,16.62
2017-07-31T00:48:56.093Z,16.57
2017-07-31T00:49:09.493Z,16.55
2017-07-31T00:49:22.881Z,16.52
2017-07-31T00:49:36.351Z,16.54
2017-07-31T00:49:49.805Z,16.52
2017-07-31T00:50:03.280Z,16.48
2017-07-31T00:50:16.823Z,16.57
2017-07-31T00:50:30.231Z,16.55
2017-07-31T00:50:43.145Z,16.57
2017-07-31T00:50:56.574Z,16.47
2017-07-31T00:51:10.072Z,16.45
2017-07-31T00:51:23.560Z,16.48
2017-07-31T00:51:36.948Z,16.57
2017-07-31T00:51:50.447Z,16.44
2017-07-31T00:52:03.365Z,16.49
2017-07-31T00:52:15.765Z,16.48
2017-07-31T00:52:29.680Z,16.45
2017-07-31T00:52:43.131Z,16.4
2017-07-31T00:52:56.079Z,16.48
2017-07-31T00:53:09.575Z,16.45
2017-07-31T00:53:23.018Z,16.42
2017-07-31T00:53:36.484Z,16.42
2017-07-31T00:53:49.930Z,16.37
2017-07-31T00:54:03.330Z,16.47
2017-07-31T00:54:16.266Z,16.47
2017-07-31T00:54:29.712Z,16.49
2017-07-31T00:54:43.167Z,16.42
2017-07-31T00:54:56.673Z,16.45
2017-07-31T00:55:09.097Z,16.4
2017-07-31T00:55:22.543Z,16.58
2017-07-31T00:55:36.020Z,16.57
2017-07-31T00:55:48.928Z,16.54
2017-07-31T00:56:02.374Z,16.69
2017-07-31T00:56:15.357Z,16.63
2017-07-31T00:56:28.792Z,16.51
2017-07-31T00:56:42.286Z,16.67
2017-07-31T00:56:55.736Z,16.72
2017-07-31T00:57:09.245Z,16.66
2017-07-31T00:57:22.734Z,16.67
2017-07-31T00:57:36.907Z,16.69
2017-07-31T00:57:49.797Z,16.67
2017-07-31T00:58:02.688Z,16.62
2017-07-31T00:58:16.175Z,16.66
2017-07-31T00:58:29.652Z,16.63
2017-07-31T00:58:42.641Z,16.66
2017-07-31T00:58:55.587Z,16.65
2017-07-31T00:59:09.068Z,16.66
2017-07-31T00:59:22.021Z,16.67
2017-07-31T00:59:35.454Z,16.58
2017-07-31T00:59:48.853Z,16.65
2017-07-31T01:00:02.259Z,16.65
2017-07-31T01:00:15.729Z,16.69
2017-07-31T01:00:29.220Z,16.67
2017-07-31T01:00:42.672Z,16.66
2017-07-31T01:00:57.626Z,16.72
2017-07-31T01:01:11.136Z,16.65
2017-07-31T01:01:24.586Z,16.63
2017-07-31T01:01:37.992Z,16.69
2017-07-31T01:01:51.408Z,16.7
2017-07-31T01:02:04.959Z,16.7
2017-07-31T01:02:17.935Z,16.7
2017-07-31T01:02:32.251Z,16.76
2017-07-31T01:02:44.653Z,16.63
2017-07-31T01:02:57.563Z,16.69
2017-07-31T01:03:10.484Z,16.73
2017-07-31T01:03:23.394Z,16.69
2017-07-31T01:03:36.906Z,16.76
2017-07-31T01:03:50.343Z,16.73
2017-07-31T01:04:03.269Z,16.76
2017-07-31T01:04:16.716Z,16.85
2017-07-31T01:04:30.232Z,16.88
2017-07-31T01:04:43.163Z,16.87
2017-07-31T01:04:56.622Z,16.92
2017-07-31T01:05:09.564Z,16.94
2017-07-31T01:05:23.015Z,16.97
2017-07-31T01:05:36.466Z,17.02
2017-07-31T01:05:49.358Z,17.02
2017-07-31T01:06:02.336Z,17.03
2017-07-31T01:06:15.245Z,16.94
2017-07-31T01:06:28.775Z,16.99
2017-07-31T01:06:41.723Z,17.09
2017-07-31T01:06:55.113Z,17.06
2017-07-31T01:07:08.086Z,17.02
2017-07-31T01:07:21.521Z,17.06
2017-07-31T01:07:35.042Z,17.02
2017-07-31T01:07:48.511Z,16.97
2017-07-31T01:08:01.391Z,16.99
2017-07-31T01:08:14.289Z,16.99
2017-07-31T01:08:27.709Z,17
2017-07-31T01:08:41.177Z,17.03
2017-07-31T01:08:54.624Z,16.94
2017-07-31T01:09:07.048Z,16.97
2017-07-31T01:09:19.382Z,16.97
2017-07-31T01:09:32.852Z,16.99
2017-07-31T01:09:46.281Z,16.97
2017-07-31T01:09:59.729Z,16.92
2017-07-31T01:10:12.670Z,16.94
2017-07-31T01:10:26.122Z,16.85
2017-07-31T01:10:39.578Z,16.9
2017-07-31T01:10:53.132Z,16.88
2017-07-31T01:11:06.560Z,16.81
2017-07-31T01:11:20.015Z,16.97
2017-07-31T01:11:32.938Z,16.84
2017-07-31T01:11:46.369Z,16.84
2017-07-31T01:11:59.820Z,16.88
2017-07-31T01:12:12.204Z,16.88
2017-07-31T01:12:25.699Z,16.82
2017-07-31T01:12:49.397Z,16.87
2017-07-31T01:13:02.369Z,16.76
2017-07-31T01:13:15.251Z,16.73
2017-07-31T01:13:28.821Z,16.8
2017-07-31T01:13:41.804Z,16.73
2017-07-31T01:13:55.210Z,16.76
2017-07-31T01:14:08.100Z,16.84
2017-07-31T01:14:21.524Z,16.7
2017-07-31T01:14:35.015Z,16.66
2017-07-31T01:14:48.472Z,16.67
2017-07-31T01:15:01.986Z,16.69
2017-07-31T01:15:15.467Z,16.76
2017-07-31T01:15:28.462Z,16.74
2017-07-31T01:15:41.939Z,16.69
2017-07-31T01:15:54.860Z,16.69
2017-07-31T01:16:08.311Z,16.62
2017-07-31T01:16:21.225Z,16.63
2017-07-31T01:16:34.666Z,16.59
2017-07-31T01:16:47.653Z,16.57
2017-07-31T01:17:01.066Z,16.51
2017-07-31T01:17:14.472Z,16.62
2017-07-31T01:17:27.884Z,16.59
2017-07-31T01:17:40.873Z,16.51
2017-07-31T01:17:54.386Z,16.48
2017-07-31T01:18:07.383Z,16.45
2017-07-31T01:18:20.332Z,16.45
2017-07-31T01:18:33.806Z,16.49
2017-07-31T01:18:47.249Z,16.4
2017-07-31T01:19:00.738Z,16.37
2017-07-31T01:19:13.171Z,16.37
2017-07-31T01:19:26.644Z,16.42
2017-07-31T01:19:39.586Z,16.33
2017-07-31T01:19:53.050Z,16.3
2017-07-31T01:20:06.476Z,16.37
2017-07-31T01:20:18.871Z,16.36
2017-07-31T01:20:32.321Z,16.36
2017-07-31T01:20:45.880Z,16.34
2017-07-31T01:20:58.804Z,16.34
2017-07-31T01:21:12.252Z,16.3
2017-07-31T01:21:25.701Z,16.29
2017-07-31T01:21:38.146Z,16.29
2017-07-31T01:21:51.615Z,16.27
2017-07-31T01:22:04.568Z,16.29
2017-07-31T01:22:17.493Z,16.14
2017-07-31T01:22:30.964Z,16.26
2017-07-31T01:22:44.337Z,16.18
2017-07-31T01:23:14.358Z,16.13
2017-07-31T01:23:27.796Z,16.14
2017-07-31T01:23:41.182Z,16.22
2017-07-31T01:23:54.634Z,16.16
2017-07-31T01:24:08.010Z,16.18
2017-07-31T01:24:21.422Z,16.08
2017-07-31T01:24:34.884Z,16.11
2017-07-31T01:24:47.796Z,16.1
2017-07-31T01:25:00.706Z,16.11
2017-07-31T01:25:12.541Z,16.14
2017-07-31T01:25:25.450Z,16.13
2017-07-31T01:25:38.892Z,16.04
2017-07-31T01:25:51.763Z,16.04
2017-07-31T01:26:05.238Z,16.1
2017-07-31T01:26:18.691Z,16
2017-07-31T01:26:31.570Z,15.99
2017-07-31T01:26:45.000Z,16
2017-07-31T01:26:58.466Z,16.14
2017-07-31T01:27:11.481Z,16.16
2017-07-31T01:27:24.479Z,16.17
2017-07-31T01:27:37.923Z,16.21
2017-07-31T01:27:51.358Z,16.17
2017-07-31T01:28:04.257Z,16.17
2017-07-31T01:28:17.722Z,16.22
2017-07-31T01:28:31.228Z,16.11
2017-07-31T01:28:44.671Z,16.16
2017-07-31T01:28:58.104Z,16.21
2017-07-31T01:29:11.614Z,16.26
2017-07-31T01:29:25.220Z,16.27
2017-07-31T01:29:38.861Z,16.14
2017-07-31T01:29:52.248Z,16.3
2017-07-31T01:30:05.132Z,16.16
2017-07-31T01:30:17.486Z,16.33
2017-07-31T01:30:30.942Z,16.22
2017-07-31T01:30:44.396Z,16.3
2017-07-31T01:30:57.836Z,16.36
2017-07-31T01:31:11.304Z,16.36
2017-07-31T01:31:24.751Z,16.34
2017-07-31T01:31:38.196Z,16.33
2017-07-31T01:31:51.131Z,16.36
2017-07-31T01:32:04.043Z,16.36
2017-07-31T01:32:15.900Z,16.36
2017-07-31T01:32:29.321Z,16.3
2017-07-31T01:32:42.245Z,16.34
2017-07-31T01:32:55.664Z,16.32
2017-07-31T01:33:09.165Z,16.3
2017-07-31T01:33:22.639Z,16.3
2017-07-31T01:33:36.076Z,16.27
2017-07-31T01:33:49.573Z,16.34
2017-07-31T01:34:02.507Z,16.36
2017-07-31T01:34:15.438Z,16.3
2017-07-31T01:34:28.835Z,16.37
2017-07-31T01:34:42.360Z,16.34
2017-07-31T01:34:55.816Z,16.34
2017-07-31T01:35:08.741Z,16.34
2017-07-31T01:35:22.170Z,16.34
2017-07-31T01:35:35.630Z,16.39
2017-07-31T01:35:48.550Z,16.36
2017-07-31T01:36:02.000Z,16.34
2017-07-31T01:36:15.455Z,16.36
2017-07-31T01:36:28.916Z,16.29
2017-07-31T01:36:41.828Z,16.37
2017-07-31T01:36:55.330Z,16.36
2017-07-31T01:37:08.773Z,16.33
2017-07-31T01:37:21.605Z,16.36
2017-07-31T01:37:35.078Z,16.4
2017-07-31T01:37:48.552Z,16.36
2017-07-31T01:38:01.535Z,16.36
2017-07-31T01:38:15.668Z,16.32
2017-07-31T01:38:29.062Z,16.33
2017-07-31T01:38:42.572Z,16.32
2017-07-31T01:38:55.494Z,16.3
2017-07-31T01:39:08.921Z,16.3
2017-07-31T01:39:21.848Z,16.39
2017-07-31T01:39:35.287Z,16.36
2017-07-31T01:39:48.706Z,16.4
2017-07-31T01:40:01.637Z,16.49
2017-07-31T01:40:15.118Z,16.51
2017-07-31T01:40:28.034Z,16.48
2017-07-31T01:40:40.976Z,16.59
2017-07-31T01:40:54.492Z,16.62
2017-07-31T01:41:07.951Z,16.67
2017-07-31T01:41:21.437Z,16.54
2017-07-31T01:41:34.936Z,16.58
2017-07-31T01:41:47.862Z,16.69
2017-07-31T01:42:00.201Z,16.72
2017-07-31T01:42:13.675Z,16.7
2017-07-31T01:42:27.148Z,16.7
2017-07-31T01:42:39.583Z,16.59
2017-07-31T01:42:53.137Z,16.62
2017-07-31T01:43:06.586Z,16.69
2017-07-31T01:43:20.102Z,16.72
2017-07-31T01:43:33.663Z,16.69
2017-07-31T01:43:47.151Z,16.65
2017-07-31T01:44:00.551Z,16.73
2017-07-31T01:44:13.460Z,16.69
2017-07-31T01:44:26.882Z,16.63
2017-07-31T01:44:39.725Z,16.65
2017-07-31T01:44:53.135Z,16.66
2017-07-31T01:45:06.609Z,16.67
2017-07-31T01:45:20.068Z,16.63
2017-07-31T01:45:33.501Z,16.58
2017-07-31T01:45:46.447Z,16.54
2017-07-31T01:45:59.340Z,16.58
2017-07-31T01:46:12.858Z,16.57
2017-07-31T01:46:26.314Z,16.45
2017-07-31T01:46:39.773Z,16.48
2017-07-31T01:46:53.227Z,16.47
2017-07-31T01:47:05.676Z,16.4
2017-07-31T01:47:19.159Z,16.4
2017-07-31T01:47:32.573Z,16.36
2017-07-31T01:47:46.015Z,16.3
2017-07-31T01:47:58.943Z,16.33
2017-07-31T01:48:12.438Z,16.3
2017-07-31T01:48:25.979Z,16.34
2017-07-31T01:48:38.876Z,16.36
2017-07-31T01:48:52.272Z,16.36
2017-07-31T01:49:05.707Z,16.26
2017-07-31T01:49:19.135Z,16.27
2017-07-31T01:49:32.523Z,16.22
2017-07-31T01:49:45.482Z,16.21
2017-07-31T01:49:58.470Z,16.22
2017-07-31T01:50:11.471Z,16.16
2017-07-31T01:50:24.459Z,16.17
2017-07-31T01:50:37.956Z,16.1
2017-07-31T01:50:50.862Z,16.13
2017-07-31T01:51:04.301Z,15.98
2017-07-31T01:51:17.772Z,16.04
2017-07-31T01:51:31.228Z,16.04
2017-07-31T01:51:44.660Z,15.99
2017-07-31T01:51:58.069Z,15.98
2017-07-31T01:52:10.482Z,15.89
2017-07-31T01:52:23.952Z,15.98
2017-07-31T01:52:37.429Z,15.96
2017-07-31T01:52:49.342Z,15.84
2017-07-31T01:53:02.824Z,15.92
2017-07-31T01:53:16.315Z,15.93
2017-07-31T01:53:29.770Z,15.83
2017-07-31T01:53:43.229Z,15.84
2017-07-31T01:53:56.717Z,15.8
2017-07-31T01:54:09.651Z,15.83
2017-07-31T01:54:23.171Z,15.81
2017-07-31T01:54:36.109Z,15.78
2017-07-31T01:54:49.586Z,15.77
2017-07-31T01:55:03.073Z,15.8
2017-07-31T01:55:16.054Z,15.75
2017-07-31T01:55:28.465Z,15.74
2017-07-31T01:55:41.892Z,15.7
2017-07-31T01:55:55.357Z,15.74
2017-07-31T01:56:08.827Z,15.7
2017-07-31T01:56:21.200Z,15.7
2017-07-31T01:56:34.694Z,15.65
2017-07-31T01:56:48.071Z,15.67
2017-07-31T01:57:00.925Z,15.78
2017-07-31T01:57:14.425Z,15.75
2017-07-31T01:57:27.931Z,15.65
2017-07-31T01:57:41.335Z,15.75
2017-07-31T01:57:56.160Z,15.74
2017-07-31T01:58:09.078Z,15.6
2017-07-31T01:58:22.541Z,15.68
2017-07-31T01:58:35.945Z,15.77
2017-07-31T01:58:48.866Z,15.73
2017-07-31T01:59:01.721Z,15.73
2017-07-31T01:59:15.179Z,15.73
2017-07-31T01:59:28.611Z,15.71
2017-07-31T01:59:42.042Z,15.73
2017-07-31T01:59:55.019Z,15.77
2017-07-31T02:00:08.491Z,15.73
2017-07-31T02:00:21.929Z,15.71
2017-07-31T02:00:35.388Z,15.65
2017-07-31T02:00:48.918Z,15.71
2017-07-31T02:01:02.332Z,15.77
2017-07-31T02:01:15.792Z,15.7
2017-07-31T02:01:29.240Z,15.73
2017-07-31T02:01:42.690Z,15.74
2017-07-31T02:01:55.596Z,15.74
2017-07-31T02:02:09.088Z,15.7
2017-07-31T02:02:22.034Z,15.74
2017-07-31T02:02:35.509Z,15.75
2017-07-31T02:02:48.966Z,15.8
2017-07-31T02:03:02.363Z,15.77
2017-07-31T02:03:15.344Z,15.81
2017-07-31T02:03:28.821Z,15.77
2017-07-31T02:03:42.277Z,15.88
2017-07-31T02:03:55.175Z,15.88
2017-07-31T02:04:07.645Z,15.89
2017-07-31T02:04:21.081Z,15.88
2017-07-31T02:04:34.555Z,15.89
2017-07-31T02:04:48.026Z,15.89
2017-07-31T02:05:01.498Z,15.96
2017-07-31T02:05:14.942Z,15.88
2017-07-31T02:05:28.432Z,15.92
2017-07-31T02:05:41.862Z,15.91
2017-07-31T02:05:54.752Z,15.84
2017-07-31T02:06:08.165Z,15.84
2017-07-31T02:06:21.596Z,15.96
2017-07-31T02:06:35.085Z,15.83
2017-07-31T02:06:47.523Z,15.81
2017-07-31T02:07:00.928Z,15.93
2017-07-31T02:07:14.374Z,15.92
2017-07-31T02:07:27.838Z,15.81
2017-07-31T02:07:41.307Z,15.83
2017-07-31T02:07:54.811Z,15.8
2017-07-31T02:08:07.797Z,15.84
2017-07-31T02:08:21.258Z,15.8
2017-07-31T02:08:35.486Z,15.8
2017-07-31T02:08:48.512Z,15.78
2017-07-31T02:09:00.986Z,15.78
2017-07-31T02:09:14.382Z,15.84
2017-07-31T02:09:27.777Z,15.78
2017-07-31T02:09:40.210Z,15.78
2017-07-31T02:09:53.698Z,15.8
2017-07-31T02:10:07.128Z,15.81
2017-07-31T02:10:20.532Z,15.73
2017-07-31T02:10:33.481Z,15.83
2017-07-31T02:10:46.889Z,15.75
2017-07-31T02:11:00.357Z,15.75
2017-07-31T02:11:13.784Z,15.7
2017-07-31T02:11:26.168Z,15.68
2017-07-31T02:11:39.690Z,15.78
2017-07-31T02:11:53.075Z,15.84
2017-07-31T02:12:05.991Z,15.8
2017-07-31T02:12:19.403Z,15.83
2017-07-31T02:12:32.331Z,15.77
2017-07-31T02:12:45.262Z,15.77
2017-07-31T02:12:58.687Z,15.83
2017-07-31T02:13:12.197Z,15.68
2017-07-31T02:13:25.131Z,15.86
2017-07-31T02:13:38.588Z,15.78
2017-07-31T02:13:52.025Z,15.83
2017-07-31T02:14:05.435Z,15.8
2017-07-31T02:14:18.854Z,15.8
2017-07-31T02:14:32.319Z,15.67
2017-07-31T02:14:44.680Z,15.68
2017-07-31T02:14:58.207Z,15.71
2017-07-31T02:15:11.646Z,15.67
2017-07-31T02:15:25.178Z,15.73
2017-07-31T02:15:38.695Z,15.7
2017-07-31T02:15:52.149Z,15.75
2017-07-31T02:16:05.617Z,15.7
2017-07-31T02:16:18.070Z,15.68
2017-07-31T02:16:31.533Z,15.65
2017-07-31T02:16:44.429Z,15.6
2017-07-31T02:16:57.856Z,15.65
2017-07-31T02:17:11.329Z,15.68
2017-07-31T02:17:24.264Z,15.56
2017-07-31T02:17:37.652Z,15.59
2017-07-31T02:17:51.124Z,15.58
2017-07-31T02:18:04.637Z,15.49
2017-07-31T02:18:17.607Z,15.41
2017-07-31T02:18:30.715Z,15.47
2017-07-31T02:18:44.145Z,15.4
2017-07-31T02:18:57.634Z,15.4
2017-07-31T02:19:10.503Z,15.41
2017-07-31T02:19:23.976Z,15.35
2017-07-31T02:19:37.366Z,15.4
2017-07-31T02:19:50.786Z,15.33
2017-07-31T02:20:04.146Z,15.3
2017-07-31T02:20:17.539Z,15.31
2017-07-31T02:20:31.012Z,15.27
2017-07-31T02:20:44.530Z,15.26
2017-07-31T02:20:58.045Z,15.3
2017-07-31T02:21:10.980Z,15.27
2017-07-31T02:21:24.396Z,15.16
2017-07-31T02:21:37.778Z,15.16
2017-07-31T02:21:51.266Z,15.22
2017-07-31T02:22:04.784Z,15.19
2017-07-31T02:22:17.719Z,15.19
2017-07-31T02:22:31.181Z,15.19
2017-07-31T02:22:44.120Z,15.18
2017-07-31T02:22:57.577Z,15.16
2017-07-31T02:23:10.533Z,15.22
2017-07-31T02:23:23.440Z,15.2
2017-07-31T02:23:37.766Z,15.18
2017-07-31T02:23:51.168Z,15.19
2017-07-31T02:24:04.687Z,15.15
2017-07-31T02:24:17.607Z,15.15
2017-07-31T02:24:31.075Z,15.16
2017-07-31T02:24:44.556Z,15.13
2017-07-31T02:24:57.503Z,15.1
2017-07-31T02:25:10.975Z,15.05
2017-07-31T02:25:24.425Z,15.1
2017-07-31T02:25:37.836Z,15.15
2017-07-31T02:25:50.767Z,15.05
2017-07-31T02:26:04.215Z,15.07
2017-07-31T02:26:17.607Z,14.98
2017-07-31T02:26:31.048Z,15.07
2017-07-31T02:26:44.429Z,14.98
2017-07-31T02:26:57.811Z,15.01
2017-07-31T02:27:11.247Z,15.04
2017-07-31T02:27:24.735Z,14.97
2017-07-31T02:27:38.293Z,15.01
2017-07-31T02:27:51.773Z,14.95
2017-07-31T02:28:05.276Z,14.94
2017-07-31T02:28:18.212Z,14.94
2017-07-31T02:28:31.143Z,14.98
2017-07-31T02:28:44.553Z,14.93
2017-07-31T02:28:56.948Z,14.97
2017-07-31T02:29:10.389Z,14.9
2017-07-31T02:29:23.827Z,14.95
2017-07-31T02:29:36.727Z,14.97
2017-07-31T02:29:49.640Z,14.87
2017-07-31T02:30:01.479Z,14.89
2017-07-31T02:30:14.391Z,14.82
2017-07-31T02:30:27.841Z,14.94
2017-07-31T02:30:41.319Z,14.9
2017-07-31T02:30:54.740Z,14.82
2017-07-31T02:31:08.187Z,14.9
2017-07-31T02:31:21.724Z,14.87
2017-07-31T02:31:34.726Z,14.85
2017-07-31T02:31:48.161Z,14.93
2017-07-31T02:32:01.690Z,14.8
2017-07-31T02:32:15.075Z,14.83
2017-07-31T02:32:28.572Z,14.82
2017-07-31T02:32:42.090Z,14.8
2017-07-31T02:32:55.051Z,14.83
2017-07-31T02:33:07.985Z,14.85
2017-07-31T02:33:21.496Z,14.79
2017-07-31T02:33:35.114Z,14.8
2017-07-31T02:33:47.519Z,14.89
2017-07-31T02:34:00.436Z,14.8
2017-07-31T02:34:13.334Z,14.83
2017-07-31T02:34:26.775Z,14.85
2017-07-31T02:34:40.272Z,14.93
2017-07-31T02:34:53.699Z,14.89
2017-07-31T02:35:06.092Z,15.01
2017-07-31T02:35:19.550Z,14.89
2017-07-31T02:35:33.050Z,15.01
2017-07-31T02:35:46.456Z,15
2017-07-31T02:35:59.853Z,15.02
2017-07-31T02:36:13.310Z,15.02
2017-07-31T02:36:26.793Z,15.01
2017-07-31T02:36:39.266Z,14.94
2017-07-31T02:36:52.711Z,15.01
2017-07-31T02:37:05.620Z,14.98
2017-07-31T02:37:19.124Z,15.01
2017-07-31T02:37:32.613Z,14.85
2017-07-31T02:37:45.988Z,14.94
2017-07-31T02:37:59.440Z,14.95
2017-07-31T02:38:12.383Z,14.9
2017-07-31T02:38:25.832Z,14.93
2017-07-31T02:38:39.989Z,14.93
2017-07-31T02:38:53.518Z,14.89
2017-07-31T02:39:06.952Z,14.9
2017-07-31T02:39:20.454Z,14.93
2017-07-31T02:39:33.349Z,14.9
2017-07-31T02:39:46.845Z,14.77
2017-07-31T02:40:00.306Z,14.83
2017-07-31T02:40:13.782Z,14.77
2017-07-31T02:40:27.226Z,14.83
2017-07-31T02:40:40.664Z,14.83
2017-07-31T02:40:54.106Z,14.87
2017-07-31T02:41:07.003Z,14.83
2017-07-31T02:41:20.394Z,14.86
2017-07-31T02:41:33.831Z,14.8
2017-07-31T02:41:47.305Z,14.83
2017-07-31T02:42:00.209Z,14.75
2017-07-31T02:42:13.610Z,14.77
2017-07-31T02:42:26.036Z,14.8
2017-07-31T02:42:39.523Z,14.74
2017-07-31T02:42:53.053Z,14.79
2017-07-31T02:43:06.529Z,14.82
2017-07-31T02:43:19.999Z,14.7
2017-07-31T02:43:33.419Z,14.79
2017-07-31T02:43:46.898Z,14.87
2017-07-31T02:44:00.408Z,14.75
2017-07-31T02:44:12.784Z,14.7
2017-07-31T02:44:26.250Z,14.7
2017-07-31T02:44:39.790Z,14.7
2017-07-31T02:44:54.490Z,14.71
2017-07-31T02:45:07.422Z,14.74
2017-07-31T02:45:20.340Z,14.82
2017-07-31T02:45:33.236Z,14.8
2017-07-31T02:45:46.179Z,14.71
2017-07-31T02:45:59.615Z,14.77
2017-07-31T02:46:12.596Z,14.77
2017-07-31T02:46:26.063Z,14.71
2017-07-31T02:46:39.523Z,14.8
2017-07-31T02:46:52.972Z,14.79
2017-07-31T02:47:06.392Z,14.8
2017-07-31T02:47:18.809Z,14.83
2017-07-31T02:47:32.259Z,14.83
2017-07-31T02:47:45.696Z,14.7
2017-07-31T02:47:59.158Z,14.71
2017-07-31T02:48:12.684Z,14.75
2017-07-31T02:48:26.136Z,14.8
2017-07-31T02:48:39.606Z,14.74
2017-07-31T02:48:52.075Z,14.79
2017-07-31T02:49:05.552Z,14.79
2017-07-31T02:49:18.471Z,14.77
2017-07-31T02:49:31.901Z,14.77
2017-07-31T02:49:44.319Z,14.8
2017-07-31T02:49:57.755Z,14.83
2017-07-31T02:50:09.647Z,14.79
2017-07-31T02:50:22.647Z,14.69
2017-07-31T02:50:36.141Z,14.7
2017-07-31T02:50:49.093Z,14.69
2017-07-31T02:51:02.064Z,14.74
2017-07-31T02:51:15.523Z,14.71
2017-07-31T02:51:28.473Z,14.7
2017-07-31T02:51:41.970Z,14.71
2017-07-31T02:51:54.873Z,14.67
2017-07-31T02:52:08.353Z,14.63